Time;durP1;ratioP1;P1;durP2;ratioP2;P2;SDS_P1;SDS_P2;PMS_P1;PMS_P2;Temp;Humidity;BMP_temperature;BMP_pressure;BME280_temperature;BME280_humidity;BME280_pressure;Samples;Min_cycle;Max_cycle;Signal;HPM_P1;HPM_P2
2022/04/26 03:36:59;;;;;;;10.98;2.60;;;;;;;9.38;79.40;101527.19;7389107;19;20057;-65
2022/04/26 03:39:33;;;;;;;;;;;;;;;9.31;79.95;101526.03;7391353;19;20305;-64
2022/04/26 03:42:04;;;;;;;8.48;3.20;;;;;;;9.27;80.50;101535.13;7387635;19;19923;-65
2022/04/26 03:44:31;;;;;;;9.05;3.10;;;;;;;9.26;80.60;101531.66;7391197;19;20029;-66
2022/04/26 03:46:58;;;;;;;11.90;3.28;;;;;;;9.29;80.30;101538.47;7390406;19;20034;-65
2022/04/26 03:49:25;;;;;;;9.77;3.60;;;;;;;9.30;80.06;101525.19;7387904;19;20011;-67
2022/04/26 03:51:53;;;;;;;12.40;2.90;;;;;;;9.28;80.35;101528.94;7385856;19;20010;-65
2022/04/26 03:54:21;;;;;;;8.82;2.85;;;;;;;9.28;80.09;101535.00;7390825;19;20011;-63
2022/04/26 03:56:48;;;;;;;12.65;3.47;;;;;;;9.31;79.81;101528.66;7389192;19;20010;-65
2022/04/26 03:59:16;;;;;;;13.35;3.65;;;;;;;9.30;79.93;101537.50;7392715;19;20036;-65
2022/04/26 04:01:43;;;;;;;11.13;3.00;;;;;;;9.22;79.95;101538.13;7362329;19;20368;-64
2022/04/26 04:04:10;;;;;;;11.90;3.38;;;;;;;9.23;80.30;101536.34;7385532;19;20046;-64
2022/04/26 04:06:37;;;;;;;11.25;3.47;;;;;;;9.21;80.09;101541.72;7391644;19;20463;-63
2022/04/26 04:09:05;;;;;;;25.85;8.40;;;;;;;9.22;79.92;101537.31;7387645;19;20020;-65
2022/04/26 04:11:32;;;;;;;10.40;3.72;;;;;;;9.21;80.33;101533.00;7386913;19;20213;-64
2022/04/26 04:13:59;;;;;;;14.48;3.70;;;;;;;9.21;80.09;101530.38;7389086;19;20074;-64
2022/04/26 04:16:25;;;;;;;12.77;3.67;;;;;;;9.18;79.58;101535.91;7388212;19;20089;-66
2022/04/26 04:21:38;;;;;;;10.23;3.13;;;;;;;9.12;79.85;101539.84;7388612;19;20121;-66
2022/04/26 04:24:05;;;;;;;14.05;4.00;;;;;;;9.13;80.18;101543.31;7387807;19;20340;-66
2022/04/26 04:26:32;;;;;;;12.38;4.38;;;;;;;9.12;80.18;101541.66;7386141;19;20014;-65
2022/04/26 04:28:59;;;;;;;11.50;3.55;;;;;;;9.15;80.28;101544.84;7390338;19;20029;-64
2022/04/26 04:31:26;;;;;;;11.48;3.45;;;;;;;9.19;79.52;101550.69;7385461;19;20025;-65
2022/04/26 04:33:53;;;;;;;9.00;3.63;;;;;;;9.16;79.76;101548.31;7387411;19;20011;-66
2022/04/26 04:36:20;;;;;;;11.40;3.90;;;;;;;9.14;80.02;101552.88;7385037;19;20002;-65
2022/04/26 04:38:47;;;;;;;13.18;4.50;;;;;;;9.15;80.06;101554.50;7391372;19;20427;-64
2022/04/26 04:41:14;;;;;;;11.38;5.00;;;;;;;9.17;80.48;101553.44;7387039;19;20019;-63
2022/04/26 04:43:41;;;;;;;11.07;4.63;;;;;;;9.19;80.12;101563.81;7384987;19;20314;-64
2022/04/26 04:46:08;;;;;;;24.33;10.45;;;;;;;9.20;79.82;101557.59;7390419;19;20046;-65
2022/04/26 04:48:35;;;;;;;10.52;5.07;;;;;;;9.25;80.54;101564.13;7389320;19;20519;-66
2022/04/26 04:51:02;;;;;;;15.07;5.35;;;;;;;9.28;79.75;101565.69;7385951;19;20313;-65
2022/04/26 04:53:35;;;;;;;13.57;4.10;;;;;;;9.32;80.37;101567.09;7387124;19;20468;-65
2022/04/26 04:56:02;;;;;;;10.68;3.95;;;;;;;9.31;78.65;101565.41;7386168;19;20017;-66
2022/04/26 04:58:29;;;;;;;13.65;4.32;;;;;;;9.32;78.49;101564.47;7389638;19;20492;-67
2022/04/26 05:00:56;;;;;;;20.77;8.80;;;;;;;9.32;79.34;101567.09;7369380;19;20075;-65
2022/04/26 05:03:23;;;;;;;13.75;4.38;;;;;;;9.28;78.50;101566.53;7377924;19;20029;-65
2022/04/26 05:05:50;;;;;;;11.15;3.75;;;;;;;9.29;78.32;101573.44;7384828;19;20114;-62
2022/04/26 05:08:17;;;;;;;8.80;3.35;;;;;;;9.27;78.13;101579.78;7386163;19;20313;-64
2022/04/26 05:10:44;;;;;;;10.60;3.60;;;;;;;9.24;78.41;101577.41;7389481;19;20146;-65
2022/04/26 05:13:11;;;;;;;10.25;3.22;;;;;;;9.23;78.15;101581.81;7386398;19;20074;-66
2022/04/26 05:15:38;;;;;;;9.90;4.18;;;;;;;9.23;78.93;101584.44;7387814;19;20535;-65
2022/04/26 05:18:05;;;;;;;12.00;3.50;;;;;;;9.22;79.04;101579.31;7389073;19;20045;-64
2022/04/26 05:20:32;;;;;;;11.43;3.42;;;;;;;9.21;78.31;101588.97;7387648;19;20024;-65
2022/04/26 05:25:45;;;;;;;7.15;3.25;;;;;;;9.25;77.86;101594.81;7387676;19;20010;-66
2022/04/26 05:28:12;;;;;;;7.25;2.60;;;;;;;9.27;77.63;101604.25;7387211;19;20657;-66
2022/04/26 05:30:39;;;;;;;7.55;2.95;;;;;;;9.29;77.43;101607.59;7386432;19;20313;-64
2022/04/26 05:33:05;;;;;;;9.18;3.85;;;;;;;9.31;76.80;101610.06;7388252;19;20006;-65
2022/04/26 05:35:32;;;;;;;9.98;2.30;;;;;;;9.25;76.88;101614.00;7387298;19;20132;-66
2022/04/26 05:37:59;;;;;;;8.00;2.95;;;;;;;9.25;77.26;101613.19;7390678;19;20384;-62
2022/04/26 05:40:26;;;;;;;10.38;3.03;;;;;;;9.19;76.97;101613.72;7391088;19;20543;-66
2022/04/26 05:42:53;;;;;;;11.93;3.33;;;;;;;9.21;77.14;101628.38;7392092;19;20018;-65
2022/04/26 05:45:21;;;;;;;10.85;2.92;;;;;;;9.26;77.56;101628.81;7393106;19;20014;-66
2022/04/26 05:47:56;;;;;;;7.10;2.85;;;;;;;9.31;76.07;101621.41;7395470;19;20468;-64
2022/04/26 05:50:23;;;;;;;11.55;5.20;;;;;;;9.32;76.18;101630.13;7393147;19;20023;-65
2022/04/26 05:52:50;;;;;;;9.25;2.92;;;;;;;9.31;76.55;101620.56;7392484;19;20348;-66
2022/04/26 05:55:17;;;;;;;13.23;3.03;;;;;;;9.33;75.82;101637.03;7393242;19;20365;-66
2022/04/26 05:57:47;;;;;;;11.38;3.35;;;;;;;9.40;75.06;101636.41;7393710;19;20007;-68
2022/04/26 06:00:22;;;;;;;8.00;2.70;;;;;;;9.45;75.61;101636.88;7395082;19;20007;-66
2022/04/26 06:02:52;;;;;;;8.52;2.78;;;;;;;9.48;74.86;101640.22;7391925;19;20011;-64
2022/04/26 06:05:20;;;;;;;7.72;4.60;;;;;;;9.57;75.33;101645.53;7394507;19;20640;-65
2022/04/26 06:07:53;;;;;;;9.35;3.13;;;;;;;9.63;74.97;101647.66;7390889;19;20019;-63
2022/04/26 06:10:20;;;;;;;;;;;;;;;9.70;74.09;101646.19;7393058;19;20011;-65
2022/04/26 06:12:48;;;;;;;9.23;4.10;;;;;;;9.74;73.60;101645.00;7389420;19;20286;-65
2022/04/26 06:15:17;;;;;;;9.68;2.53;;;;;;;9.79;73.21;101653.34;7392497;19;20532;-66
2022/04/26 06:17:48;;;;;;;9.65;2.15;;;;;;;9.80;71.64;101651.53;7394612;19;20158;-64
2022/04/26 06:20:22;;;;;;;8.45;1.77;;;;;;;9.76;72.21;101657.97;7397367;19;20272;-66
2022/04/26 06:22:49;;;;;;;6.93;2.08;;;;;;;9.70;72.02;101653.25;7390109;19;20495;-65
2022/04/26 06:25:17;;;;;;;7.95;2.50;;;;;;;9.71;72.20;101647.84;7394730;19;20014;-65
2022/04/26 06:27:47;;;;;;;9.05;2.25;;;;;;;9.72;72.22;101651.31;7392607;19;20026;-65
2022/04/26 06:30:22;;;;;;;5.93;2.08;;;;;;;9.78;71.46;101656.91;7394905;19;20029;-64
2022/04/26 06:32:49;;;;;;;8.40;2.63;;;;;;;9.83;71.22;101665.25;7387802;19;20014;-66
2022/04/26 06:35:16;;;;;;;6.50;2.00;;;;;;;9.91;71.07;101667.22;7393981;19;20033;-67
2022/04/26 06:37:45;;;;;;;6.65;2.30;;;;;;;9.97;71.00;101673.78;7389998;19;20494;-65
2022/04/26 06:40:18;;;;;;;4.82;1.50;;;;;;;10.01;70.62;101667.28;7391824;19;20476;-66
2022/04/26 06:42:45;;;;;;;8.52;2.10;;;;;;;10.15;69.79;101667.00;7392521;19;20011;-67
2022/04/26 06:45:12;;;;;;;7.05;1.75;;;;;;;10.25;69.37;101667.91;7392198;19;20021;-65
2022/04/26 06:47:39;;;;;;;7.60;1.45;;;;;;;10.39;67.79;101666.72;7391078;19;20363;-66
2022/04/26 06:50:06;;;;;;;7.28;2.00;;;;;;;10.43;67.84;101663.69;7389958;19;20013;-66
2022/04/26 06:52:33;;;;;;;5.75;2.30;;;;;;;10.48;66.95;101671.19;7390659;19;20007;-66
2022/04/26 06:55:00;;;;;;;9.32;2.15;;;;;;;10.52;66.95;101676.06;7391750;19;20006;-64
2022/04/26 06:57:27;;;;;;;6.00;1.80;;;;;;;10.59;67.66;101686.91;7394894;19;20011;-66
2022/04/26 06:59:54;;;;;;;5.68;1.50;;;;;;;10.67;69.32;101684.44;7390390;19;20035;-65
2022/04/26 07:02:22;;;;;;;7.20;3.92;;;;;;;10.77;67.82;101697.66;7393488;19;20021;-64
2022/04/26 07:04:49;;;;;;;10.13;2.45;;;;;;;10.85;64.79;101695.19;7394086;19;20007;-65
2022/04/26 07:07:16;;;;;;;7.32;2.08;;;;;;;10.92;64.85;101693.69;7388640;19;20021;-64
2022/04/26 07:09:43;;;;;;;6.38;2.20;;;;;;;11.01;64.48;101698.16;7393888;19;20017;-65
2022/04/26 07:12:10;;;;;;;9.75;3.13;;;;;;;10.96;65.18;101705.63;7390498;19;20021;-64
2022/04/26 07:14:37;;;;;;;11.90;3.33;;;;;;;11.00;63.27;101707.84;7393362;19;20013;-64
2022/04/26 07:17:04;;;;;;;9.25;3.78;;;;;;;11.03;63.24;101712.84;7391845;19;20014;-65
2022/04/26 07:19:34;;;;;;;11.40;3.58;;;;;;;11.01;63.00;101712.16;7389294;19;20027;-66
2022/04/26 07:22:21;;;;;;;12.30;4.78;;;;;;;11.01;63.66;101714.81;7389856;19;20011;-66
2022/04/26 07:24:47;;;;;;;13.77;4.72;;;;;;;10.99;63.56;101707.97;7394203;19;20006;-64
2022/04/26 07:27:16;;;;;;;15.05;6.10;;;;;;;10.97;63.58;101715.19;7389933;19;20006;-64
2022/04/26 07:29:44;;;;;;;15.20;5.75;;;;;;;10.95;63.50;101712.69;7394204;19;20111;-64
2022/04/26 07:32:19;;;;;;;12.68;4.53;;;;;;;10.95;63.76;101717.97;7388409;19;20031;-67
2022/04/26 07:34:47;;;;;;;12.68;4.88;;;;;;;10.99;62.67;101713.25;7392618;19;20026;-64
2022/04/26 07:37:15;;;;;;;13.95;5.05;;;;;;;11.05;63.27;101718.00;7387633;19;20365;-65
2022/04/26 07:39:42;;;;;;;13.60;5.88;;;;;;;11.11;63.42;101731.47;7389298;19;20156;-66
2022/04/26 07:42:10;;;;;;;10.73;4.57;;;;;;;11.33;60.67;101727.75;7388475;19;20014;-66
2022/04/26 07:44:39;;;;;;;12.55;4.55;;;;;;;11.58;59.43;101721.97;7389889;19;20023;-65
2022/04/26 07:47:07;;;;;;;11.43;4.22;;;;;;;11.61;59.67;101728.78;7386856;19;20006;-63
2022/04/26 07:49:36;;;;;;;12.52;4.72;;;;;;;11.65;59.28;101730.19;7386264;19;20022;-65
2022/04/26 07:52:04;;;;;;;12.65;4.35;;;;;;;11.68;59.50;101729.91;7388052;19;20808;-65
2022/04/26 07:54:31;;;;;;;17.90;5.57;;;;;;;11.69;59.95;101736.00;7391187;19;20018;-64
2022/04/26 07:56:58;;;;;;;15.65;5.20;;;;;;;11.78;57.62;101732.59;7391399;19;20021;-67
2022/04/26 07:59:28;;;;;;;11.35;4.93;;;;;;;11.88;57.21;101734.25;7391213;19;20011;-66
2022/04/26 08:01:56;;;;;;;14.68;6.00;;;;;;;11.94;56.99;101732.84;7391821;19;20014;-66
2022/04/26 08:04:23;;;;;;;19.15;6.82;;;;;;;12.05;56.67;101735.34;7391105;19;20019;-63
2022/04/26 08:06:50;;;;;;;22.00;8.98;;;;;;;12.03;56.64;101739.94;7391148;19;20013;-66
2022/04/26 08:09:17;;;;;;;21.55;9.20;;;;;;;11.99;56.97;101751.72;7386322;19;20010;-64
2022/04/26 08:11:46;;;;;;;27.10;10.55;;;;;;;12.19;57.38;101745.47;7389662;19;20145;-66
2022/04/26 08:14:13;;;;;;;26.75;11.02;;;;;;;12.27;56.36;101748.25;7388594;19;20034;-66
2022/04/26 08:16:40;;;;;;;23.42;9.38;;;;;;;12.30;57.10;101747.97;7387110;19;20011;-65
2022/04/26 08:19:10;;;;;;;19.15;7.22;;;;;;;12.28;56.42;101755.19;7388209;19;20035;-65
2022/04/26 08:21:38;;;;;;;18.20;6.90;;;;;;;12.27;54.87;101747.41;7387306;19;20019;-63
2022/04/26 08:29:37;;;;;;;13.65;5.72;;;;;;;12.35;55.20;101758.09;7388253;19;20015;-65
2022/04/26 08:32:05;;;;;;;14.57;4.93;;;;;;;12.38;54.95;101757.81;7389482;19;20015;-64
2022/04/26 08:34:33;;;;;;;12.43;4.72;;;;;;;12.49;52.67;101762.13;7387173;19;20023;-65
2022/04/26 08:36:59;;;;;;;10.20;4.70;;;;;;;12.52;51.67;101759.19;7386747;19;20014;-67
2022/04/26 08:39:26;;;;;;;12.60;4.90;;;;;;;12.40;51.65;101761.13;7385364;19;20010;-64
2022/04/26 08:42:01;;;;;;;12.68;4.70;;;;;;;12.37;52.27;101758.78;7387814;19;20428;-65
2022/04/26 08:44:29;;;;;;;13.07;4.90;;;;;;;12.24;52.21;101769.63;7389843;19;20010;-65
2022/04/26 08:52:48;;;;;;;8.18;3.13;;;;;;;12.37;51.62;101772.00;7387961;19;20523;-65
2022/04/26 08:55:16;;;;;;;9.75;4.40;;;;;;;12.49;51.04;101770.88;7389293;19;20014;-65
2022/04/26 08:57:46;;;;;;;11.00;4.57;;;;;;;12.58;51.14;101777.94;7387964;19;20405;-66
2022/04/26 09:00:19;;;;;;;12.30;3.08;;;;;;;12.59;50.33;101779.59;7388233;19;20013;-64
2022/04/26 09:03:03;;;;;;;11.65;4.78;;;;;;;12.55;50.81;101782.63;7388273;19;20046;-66
2022/04/26 09:05:31;;;;;;;15.65;5.82;;;;;;;12.57;51.24;101784.19;7389200;19;20034;-66
2022/04/26 09:07:58;;;;;;;14.32;6.07;;;;;;;12.61;51.01;101776.78;7384606;19;20433;-66
2022/04/26 09:10:29;;;;;;;22.85;7.60;;;;;;;12.64;51.92;101777.38;7385892;19;20014;-65
2022/04/26 09:13:09;;;;;;;17.33;7.30;;;;;;;12.77;51.82;101779.69;7383775;19;20126;-64
2022/04/26 09:15:43;;;;;;;12.23;5.18;;;;;;;12.91;48.59;101781.03;7390316;19;20014;-65
2022/04/26 09:18:28;;;;;;;13.13;5.07;;;;;;;12.94;48.35;101786.03;7386179;19;20136;-65
2022/04/26 09:21:08;;;;;;;14.88;5.68;;;;;;;13.04;48.69;101785.03;7385249;19;20011;-64
2022/04/26 09:23:38;;;;;;;13.18;5.78;;;;;;;13.18;49.11;101784.56;7374883;19;20476;-66
2022/04/26 09:26:09;;;;;;;15.95;5.57;;;;;;;13.33;48.47;101779.63;7385288;19;20017;-66
2022/04/26 09:28:47;;;;;;;11.18;4.53;;;;;;;13.52;48.54;101786.63;7366695;19;20101;-65
2022/04/26 09:31:21;;;;;;;14.18;5.38;;;;;;;13.69;48.14;101785.81;7378892;19;20010;-65
2022/04/26 09:34:04;;;;;;;8.85;3.33;;;;;;;13.93;45.82;101788.72;7384278;19;20420;-66
2022/04/26 09:36:41;;;;;;;6.73;2.40;;;;;;;14.04;44.70;101783.19;7387089;19;20019;-64
2022/04/26 09:39:09;;;;;;;4.30;1.20;;;;;;;14.06;44.00;101791.00;7384566;19;20049;-63
2022/04/26 09:41:37;;;;;;;5.40;1.15;;;;;;;14.05;44.25;101790.16;7388342;19;20458;-66
2022/04/26 09:44:07;;;;;;;2.72;0.98;;;;;;;14.08;44.57;101789.00;7389158;19;20304;-65
2022/04/26 09:46:41;;;;;;;7.10;1.63;;;;;;;14.09;44.55;101780.94;7384816;19;20095;-65
2022/04/26 09:49:14;;;;;;;4.20;1.13;;;;;;;14.09;46.23;101777.44;7384735;19;20011;-66
2022/04/26 09:51:45;;;;;;;3.13;0.60;;;;;;;14.24;42.99;101788.31;7387265;19;20030;-66
2022/04/26 09:54:13;;;;;;;2.55;0.40;;;;;;;14.34;42.16;101795.19;7386300;19;20019;-66
2022/04/26 09:56:50;;;;;;;2.30;0.47;;;;;;;14.39;42.81;101792.94;7385885;19;20010;-66
2022/04/26 09:59:28;;;;;;;1.67;0.40;;;;;;;14.44;42.60;101785.38;7387290;19;20482;-65
2022/04/26 10:01:57;;;;;;;1.50;0.40;;;;;;;14.43;40.96;101796.94;7388016;19;20018;-66
2022/04/26 10:04:29;;;;;;;1.00;0.30;;;;;;;14.47;41.60;101795.69;7385790;19;20011;-66
2022/04/26 10:07:02;;;;;;;1.92;0.40;;;;;;;14.51;41.55;101789.09;7383509;19;20030;-65
2022/04/26 10:09:29;;;;;;;1.95;0.40;;;;;;;14.60;41.10;101789.13;7382568;19;20007;-65
2022/04/26 10:11:59;;;;;;;4.10;0.40;;;;;;;14.50;40.86;101791.88;7382924;19;20037;-63
2022/04/26 10:14:29;;;;;;;2.45;0.43;;;;;;;14.51;41.56;101790.91;7387094;19;20127;-65
2022/04/26 10:16:56;;;;;;;1.67;0.50;;;;;;;14.58;42.14;101793.78;7388000;19;20082;-66
2022/04/26 10:19:41;;;;;;;1.77;0.40;;;;;;;14.63;41.65;101789.63;7386282;19;20041;-68
2022/04/26 10:22:10;;;;;;;2.47;0.30;;;;;;;14.65;41.35;101792.97;7384137;19;20158;-63
2022/04/26 10:24:39;;;;;;;1.00;0.45;;;;;;;14.63;41.41;101794.94;7393531;19;20041;-65
2022/04/26 10:27:18;;;;;;;1.65;0.50;;;;;;;14.57;40.57;101787.63;7391615;19;20038;-64
2022/04/26 10:29:45;;;;;;;0.77;0.40;;;;;;;14.57;41.91;101789.44;7393000;19;20090;-66
2022/04/26 10:32:38;;;;;;;0.88;0.40;;;;;;;14.64;42.05;101795.78;7391671;19;20377;-64
2022/04/26 10:35:23;;;;;;;2.17;0.50;;;;;;;14.75;41.77;101788.41;7392316;19;20034;-65
2022/04/26 10:38:12;;;;;;;1.30;0.38;;;;;;;14.85;40.27;101798.91;7393416;19;20011;-65
2022/04/26 10:41:04;;;;;;;0.90;0.30;;;;;;;14.92;39.91;101792.00;7391990;19;20014;-63
2022/04/26 10:43:31;;;;;;;3.28;0.45;;;;;;;14.90;39.64;101792.13;7386423;19;20042;-64
2022/04/26 10:46:15;;;;;;;1.85;0.30;;;;;;;14.93;40.21;101780.41;7392404;19;20021;-65
2022/04/26 10:48:42;;;;;;;4.75;0.82;;;;;;;14.95;40.55;101796.97;7390103;19;20329;-65
2022/04/26 10:51:34;;;;;;;1.20;0.50;;;;;;;14.93;40.98;101794.47;7392005;19;20012;-65
2022/04/26 10:54:02;;;;;;;4.93;0.50;;;;;;;15.02;39.84;101779.47;7390075;19;20070;-66
2022/04/26 10:56:31;;;;;;;2.47;0.50;;;;;;;15.04;40.64;101784.56;7389906;19;20456;-64
2022/04/26 10:58:58;;;;;;;2.10;0.50;;;;;;;14.99;40.80;101782.41;7391906;19;20087;-66
2022/04/26 11:01:27;;;;;;;2.38;0.40;;;;;;;15.05;40.72;101784.44;7393074;19;20285;-65
2022/04/26 11:03:56;;;;;;;1.98;0.50;;;;;;;15.07;41.19;101785.13;7388903;19;20055;-67
2022/04/26 11:06:37;;;;;;;2.25;0.60;;;;;;;14.97;41.41;101785.22;7393390;19;20015;-64
2022/04/26 11:09:12;;;;;;;2.05;0.52;;;;;;;15.02;41.00;101779.47;7390777;19;20023;-65
2022/04/26 11:11:50;;;;;;;1.15;0.52;;;;;;;15.04;41.30;101779.28;7389992;19;20037;-63
2022/04/26 11:14:22;;;;;;;2.10;0.50;;;;;;;15.07;41.64;101786.94;7386608;19;20095;-64
2022/04/26 11:16:57;;;;;;;1.40;0.43;;;;;;;15.16;40.31;101784.16;7393215;19;20019;-63
2022/04/26 11:19:31;;;;;;;0.98;0.40;;;;;;;15.22;41.45;101777.38;7390385;19;20018;-66
2022/04/26 11:22:09;;;;;;;1.83;0.55;;;;;;;15.27;39.55;101793.66;7393433;19;20086;-66
2022/04/26 11:30:12;;;;;;;2.38;0.60;;;;;;;15.09;40.38;101783.13;7388530;19;20014;-65
2022/04/26 11:32:44;;;;;;;1.50;0.45;;;;;;;15.19;40.57;101785.63;7388758;19;20019;-66
2022/04/26 11:35:13;;;;;;;0.95;0.40;;;;;;;15.28;39.36;101785.53;7388503;19;20051;-65
2022/04/26 11:37:47;;;;;;;1.15;0.50;;;;;;;15.35;38.64;101793.66;7388705;19;20054;-67
2022/04/26 11:40:33;;;;;;;2.08;0.85;;;;;;;15.38;39.63;101780.94;7388757;19;20713;-67
2022/04/26 11:43:15;;;;;;;2.20;0.40;;;;;;;15.44;38.33;101783.94;7384139;19;20022;-65
2022/04/26 11:45:44;;;;;;;1.05;0.40;;;;;;;15.47;37.67;101779.13;7390641;19;20029;-65
2022/04/26 11:48:13;;;;;;;0.98;0.45;;;;;;;15.46;36.91;101782.78;7388951;19;20087;-67
2022/04/26 11:50:41;;;;;;;1.02;0.40;;;;;;;15.46;36.93;101790.72;7387396;19;20099;-64
2022/04/26 11:53:32;;;;;;;1.83;0.85;;;;;;;15.48;36.87;101788.75;7389851;19;20094;-64
2022/04/26 11:56:00;;;;;;;1.10;0.45;;;;;;;15.49;36.91;101789.59;7387871;19;20006;-65
2022/04/26 11:58:27;;;;;;;3.53;0.60;;;;;;;15.38;37.54;101785.41;7390166;19;20006;-64
2022/04/26 12:01:02;;;;;;;1.50;0.43;;;;;;;15.41;38.45;101796.53;7390782;19;20039;-63
2022/04/26 12:03:32;;;;;;;3.75;0.60;;;;;;;15.41;38.12;101790.38;7388997;19;20014;-66
2022/04/26 12:06:05;;;;;;;3.22;0.50;;;;;;;15.44;38.01;101789.25;7387310;19;20162;-66
2022/04/26 12:08:39;;;;;;;1.30;0.50;;;;;;;15.50;38.87;101797.38;7387129;19;20527;-65
2022/04/26 12:11:16;;;;;;;1.55;0.80;;;;;;;15.58;37.92;101794.78;7387026;19;20305;-65
2022/04/26 12:13:44;;;;;;;2.47;0.60;;;;;;;15.65;38.46;101784.34;7385935;19;20090;-66
2022/04/26 12:16:15;;;;;;;3.80;0.63;;;;;;;15.72;39.13;101788.03;7389765;19;20035;-65
2022/04/26 12:18:56;;;;;;;2.42;0.90;;;;;;;15.72;38.46;101785.38;7386750;19;20027;-65
2022/04/26 12:21:28;;;;;;;1.95;0.65;;;;;;;15.76;38.94;101789.34;7386526;19;20014;-64
2022/04/26 12:24:23;;;;;;;3.10;0.80;;;;;;;15.69;38.23;101788.34;7386456;19;20010;-64
2022/04/26 12:26:58;;;;;;;2.58;0.60;;;;;;;15.61;38.62;101781.19;7387959;19;20005;-66
2022/04/26 12:29:29;;;;;;;4.20;0.70;;;;;;;15.60;38.69;101792.78;7388735;19;20022;-65
2022/04/26 12:31:58;;;;;;;3.80;0.60;;;;;;;15.60;39.13;101786.66;7390237;19;20023;-64
2022/04/26 12:34:31;;;;;;;4.05;1.17;;;;;;;15.66;38.78;101784.19;7386189;19;20332;-64
2022/04/26 12:36:59;;;;;;;2.15;0.57;;;;;;;15.66;38.64;101791.31;7388544;19;20019;-65
2022/04/26 12:39:52;;;;;;;1.50;0.60;;;;;;;15.65;37.91;101794.97;7385024;19;20010;-65
2022/04/26 12:42:28;;;;;;;1.10;0.60;;;;;;;15.60;37.69;101789.31;7382196;19;20025;-67
2022/04/26 12:45:00;;;;;;;2.80;0.50;;;;;;;15.59;37.71;101785.00;7383296;19;20006;-64
2022/04/26 12:50:28;;;;;;;2.13;0.60;;;;;;;15.79;37.54;101778.44;7386207;19;20350;-66
2022/04/26 12:53:01;;;;;;;2.10;0.50;;;;;;;15.87;36.92;101777.59;7386755;19;20662;-65
2022/04/26 12:55:33;;;;;;;1.48;0.50;;;;;;;15.96;37.20;101779.25;7386020;19;20081;-66
2022/04/26 12:58:04;;;;;;;1.63;0.50;;;;;;;16.02;37.46;101784.75;7387294;19;20010;-67
2022/04/26 13:00:39;;;;;;;3.15;0.85;;;;;;;16.08;36.99;101773.47;7384459;19;20480;-66
2022/04/26 13:03:07;;;;;;;0.90;0.47;;;;;;;16.13;37.57;101770.31;7388151;19;20134;-67
2022/04/26 13:05:36;;;;;;;0.95;0.50;;;;;;;16.12;37.38;101769.50;7389549;19;20006;-67
2022/04/26 13:08:04;;;;;;;4.20;0.60;;;;;;;16.17;37.81;101777.78;7382831;19;21260;-65
2022/04/26 13:10:31;;;;;;;2.05;0.50;;;;;;;16.17;36.27;101774.31;7390035;19;20044;-66
2022/04/26 13:12:58;;;;;;;1.88;0.60;;;;;;;16.15;35.86;101776.31;7383136;19;20401;-65
2022/04/26 13:15:27;;;;;;;2.45;0.60;;;;;;;16.12;35.93;101784.59;7385697;19;20010;-64
2022/04/26 13:17:54;;;;;;;1.50;0.52;;;;;;;16.08;36.26;101775.31;7388750;19;20046;-66
2022/04/26 13:20:21;;;;;;;2.42;0.60;;;;;;;16.12;36.68;101768.66;7384780;19;20018;-64
2022/04/26 13:22:48;;;;;;;1.23;0.50;;;;;;;16.06;36.80;101772.81;7385669;19;20031;-65
2022/04/26 13:25:15;;;;;;;2.47;0.80;;;;;;;16.09;36.85;101772.50;7386186;19;20007;-67
2022/04/26 13:27:48;;;;;;;1.52;0.50;;;;;;;16.11;36.49;101777.63;7385758;19;20010;-63
2022/04/26 13:30:20;;;;;;;1.27;0.50;;;;;;;16.03;35.80;101769.66;7385147;19;20020;-64
2022/04/26 13:32:47;;;;;;;1.23;0.50;;;;;;;15.98;36.00;101767.50;7387492;19;20087;-64
2022/04/26 13:35:14;;;;;;;1.45;0.43;;;;;;;16.01;36.06;101771.63;7385085;19;20002;-66
2022/04/26 13:37:43;;;;;;;1.08;0.30;;;;;;;16.06;36.60;101772.81;7384325;19;20563;-63
2022/04/26 13:40:15;;;;;;;2.58;0.50;;;;;;;16.11;36.16;101761.69;7384556;19;20066;-66
2022/04/26 13:42:42;;;;;;;2.30;0.40;;;;;;;16.14;36.01;101764.84;7383123;19;20410;-64
2022/04/26 13:45:09;;;;;;;1.63;0.50;;;;;;;16.26;35.90;101749.41;7382515;19;20014;-65
2022/04/26 13:47:37;;;;;;;5.20;0.60;;;;;;;16.32;36.47;101754.03;7384061;19;20459;-65
2022/04/26 13:50:06;;;;;;;1.75;0.40;;;;;;;16.33;36.99;101758.38;7382039;19;20011;-65
2022/04/26 13:52:33;;;;;;;2.28;0.95;;;;;;;16.37;37.45;101764.16;7384573;19;20070;-67
2022/04/26 13:55:01;;;;;;;1.80;0.50;;;;;;;16.31;37.05;101759.53;7386289;19;20041;-64
2022/04/26 13:57:27;;;;;;;1.88;0.70;;;;;;;16.19;37.42;101765.19;7389312;19;20014;-67
2022/04/26 13:59:54;;;;;;;2.22;0.60;;;;;;;16.12;38.03;101756.22;7392506;19;20618;-66
2022/04/26 14:02:21;;;;;;;1.25;0.60;;;;;;;16.07;38.50;101750.56;7391364;19;20029;-66
2022/04/26 14:04:49;;;;;;;5.75;0.63;;;;;;;16.04;38.59;101752.75;7394262;19;20010;-64
2022/04/26 14:07:17;;;;;;;1.70;0.40;;;;;;;16.04;38.83;101758.06;7390018;19;20324;-63
2022/04/26 14:09:44;;;;;;;2.42;0.50;;;;;;;16.05;38.95;101762.38;7389655;19;20014;-64
2022/04/26 14:12:14;;;;;;;2.35;0.40;;;;;;;15.97;37.32;101752.56;7391895;19;20461;-66
2022/04/26 14:23:05;;;;;;;2.45;0.70;;;;;;;15.91;37.86;101755.03;7390761;19;20006;-66
2022/04/26 14:25:32;;;;;;;1.30;0.65;;;;;;;15.85;38.30;101753.06;7391244;19;20010;-65
2022/04/26 14:27:59;;;;;;;1.45;0.50;;;;;;;15.87;38.59;101751.06;7394053;19;20010;-65
2022/04/26 14:30:26;;;;;;;1.83;0.82;;;;;;;15.93;38.70;101758.38;7389563;19;20073;-64
2022/04/26 14:33:09;;;;;;;0.80;0.50;;;;;;;15.94;38.31;101752.06;7390600;19;20003;-62
2022/04/26 14:35:36;;;;;;;2.55;0.50;;;;;;;15.97;38.71;101749.06;7395849;19;20417;-67
2022/04/26 14:38:04;;;;;;;4.82;0.50;;;;;;;15.91;39.23;101753.22;7390395;19;20047;-68
2022/04/26 14:40:32;;;;;;;1.50;0.50;;;;;;;15.81;39.13;101741.91;7391129;19;20006;-66
2022/04/26 14:43:09;;;;;;;1.00;0.40;;;;;;;15.79;39.44;101752.72;7388102;19;20019;-66
2022/04/26 14:45:44;;;;;;;6.25;0.50;;;;;;;15.75;39.79;101754.03;7391018;19;20517;-64
2022/04/26 14:48:14;;;;;;;1.45;0.63;;;;;;;15.79;39.71;101751.88;7387977;19;20022;-64
2022/04/26 14:50:52;;;;;;;2.78;0.40;;;;;;;15.81;39.58;101750.72;7392144;19;20137;-66
2022/04/26 14:53:23;;;;;;;0.85;0.40;;;;;;;15.81;38.75;101752.53;7388462;19;20366;-66
2022/04/26 14:56:07;;;;;;;1.52;0.50;;;;;;;15.82;38.74;101763.00;7389723;19;20063;-66
2022/04/26 14:58:54;;;;;;;2.67;0.52;;;;;;;15.84;38.96;101749.56;7392322;19;20739;-63
2022/04/26 15:01:21;;;;;;;1.75;0.50;;;;;;;15.80;38.16;101758.84;7393206;19;20115;-65
2022/04/26 15:03:48;;;;;;;1.77;0.57;;;;;;;15.84;38.68;101754.88;7391033;19;20015;-64
2022/04/26 15:06:15;;;;;;;2.13;0.50;;;;;;;15.92;39.27;101762.00;7390239;19;20082;-66
2022/04/26 15:11:28;;;;;;;2.88;0.50;;;;;;;16.03;40.17;101759.03;7389613;19;20006;-66
2022/04/26 15:16:42;;;;;;;3.53;0.50;;;;;;;16.08;39.31;101762.03;7390744;19;20018;-64
2022/04/26 15:19:12;;;;;;;1.95;0.50;;;;;;;16.06;38.91;101761.34;7388846;19;20027;-66
2022/04/26 15:21:42;;;;;;;1.50;0.40;;;;;;;16.01;38.90;101763.66;7387733;19;20130;-66
2022/04/26 15:24:11;;;;;;;1.27;0.40;;;;;;;15.98;38.59;101770.16;7386751;19;20082;-66
2022/04/26 15:26:38;;;;;;;4.38;0.55;;;;;;;15.95;38.38;101756.38;7390307;19;20141;-66
2022/04/26 15:29:06;;;;;;;7.38;0.60;;;;;;;15.95;38.62;101765.16;7392420;19;20015;-65
2022/04/26 15:31:34;;;;;;;1.90;0.43;;;;;;;15.96;38.85;101758.03;7390275;19;20031;-66
2022/04/26 15:34:02;;;;;;;3.70;0.60;;;;;;;15.92;39.05;101754.88;7385412;19;20022;-64
2022/04/26 15:36:29;;;;;;;1.52;0.50;;;;;;;15.90;39.44;101756.84;7387287;19;20097;-66
2022/04/26 15:38:58;;;;;;;3.88;0.77;;;;;;;15.86;39.64;101752.88;7388556;19;20028;-66
2022/04/26 15:41:26;;;;;;;3.95;0.60;;;;;;;15.83;40.07;101748.75;7388698;19;20041;-66
2022/04/26 15:43:53;;;;;;;1.23;0.60;;;;;;;15.85;39.32;101755.72;7388593;19;20014;-67
2022/04/26 15:46:41;;;;;;;3.25;0.85;;;;;;;15.81;39.73;101755.19;7389216;19;20025;-65
2022/04/26 15:49:09;;;;;;;2.28;0.60;;;;;;;15.85;40.90;101755.72;7388319;19;20007;-65
2022/04/26 15:51:37;;;;;;;1.40;0.52;;;;;;;15.85;39.99;101756.53;7387181;19;20028;-67
2022/04/26 15:54:05;;;;;;;1.88;0.45;;;;;;;15.86;39.95;101755.53;7389664;19;20015;-64